Time;durP1;ratioP1;P1;durP2;ratioP2;P2;SDS_P1;SDS_P2;PMS_P1;PMS_P2;Temp;Humidity;BMP_temperature;BMP_pressure;BME280_temperature;BME280_humidity;BME280_pressure;Samples;Min_cycle;Max_cycle;Signal;HPM_P1;HPM_P2
2021/09/01 00:00:26;;;;;;;2.63;1.55;;;24.80;94.30;;;;;;5076960;28;20051;-63
2021/09/01 00:02:55;;;;;;;4.68;2.00;;;24.80;94.30;;;;;;5095306;28;20047;-63
2021/09/01 00:05:22;;;;;;;2.42;1.60;;;24.80;94.40;;;;;;5095039;28;20450;-63
2021/09/01 00:07:50;;;;;;;4.10;2.55;;;24.80;94.50;;;;;;5095122;28;20071;-63
2021/09/01 00:10:18;;;;;;;2.80;1.67;;;24.80;94.50;;;;;;5094820;28;20137;-63
2021/09/01 00:12:47;;;;;;;1.50;1.15;;;24.80;94.40;;;;;;5060299;28;20036;-62
2021/09/01 00:15:15;;;;;;;3.22;1.83;;;24.70;94.30;;;;;;5076215;28;20071;-63
2021/09/01 00:17:42;;;;;;;3.20;1.98;;;24.70;94.00;;;;;;5094733;28;20047;-63
2021/09/01 00:20:12;;;;;;;3.83;2.00;;;24.60;93.50;;;;;;5094741;28;20048;-63
2021/09/01 00:22:39;;;;;;;4.70;2.63;;;24.60;93.20;;;;;;5094800;28;20052;-63
2021/09/01 00:25:09;;;;;;;3.53;2.33;;;24.60;92.90;;;;;;5094721;28;20036;-63
2021/09/01 00:27:37;;;;;;;5.88;2.72;;;24.50;92.70;;;;;;5094662;28;20131;-62
2021/09/01 00:30:06;;;;;;;4.18;2.58;;;24.40;92.50;;;;;;5076796;28;20119;-63
2021/09/01 00:32:34;;;;;;;4.40;3.00;;;24.40;92.40;;;;;;5094534;28;20044;-63
2021/09/01 00:35:01;;;;;;;9.50;3.83;;;24.40;92.30;;;;;;5076538;28;20067;-63
2021/09/01 00:37:29;;;;;;;3.85;2.35;;;24.30;92.30;;;;;;5076275;28;20394;-63
2021/09/01 00:39:57;;;;;;;4.28;2.33;;;24.30;92.20;;;;;;5094379;28;20085;-63
2021/09/01 00:42:25;;;;;;;6.50;2.60;;;24.30;92.20;;;;;;5094160;28;20226;-63
2021/09/01 00:44:52;;;;;;;9.68;3.55;;;24.30;92.10;;;;;;5094864;28;20432;-63
2021/09/01 00:47:22;;;;;;;5.00;2.88;;;24.30;92.10;;;;;;5076328;28;20066;-63
2021/09/01 00:49:51;;;;;;;6.88;2.55;;;24.30;92.00;;;;;;5094343;28;20493;-63
2021/09/01 00:52:20;;;;;;;3.63;2.25;;;24.40;92.10;;;;;;5075998;28;20040;-63
2021/09/01 00:54:48;;;;;;;4.97;2.58;;;24.30;92.10;;;;;;5094147;28;20597;-63
2021/09/01 00:57:18;;;;;;;5.38;2.25;;;24.30;91.90;;;;;;5093951;28;20048;-63
2021/09/01 00:59:46;;;;;;;4.97;3.38;;;24.40;91.80;;;;;;5076614;28;20044;-63
2021/09/01 01:02:14;;;;;;;4.50;2.90;;;24.30;91.60;;;;;;5093902;28;20076;-63
2021/09/01 01:04:42;;;;;;;4.05;2.90;;;24.40;91.50;;;;;;5093968;28;20079;-63
2021/09/01 01:07:11;;;;;;;5.57;2.95;;;24.40;91.20;;;;;;5059138;28;20486;-63
2021/09/01 01:09:42;;;;;;;4.43;2.38;;;24.40;90.90;;;;;;5093977;28;20378;-63
2021/09/01 01:12:11;;;;;;;4.90;2.67;;;24.40;90.70;;;;;;5094401;28;20040;-63
2021/09/01 01:14:45;;;;;;;6.35;2.95;;;24.40;90.60;;;;;;5093984;28;20047;-63
2021/09/01 01:17:19;;;;;;;4.40;2.80;;;24.40;90.40;;;;;;5093791;28;20044;-63
2021/09/01 01:19:52;;;;;;;5.35;3.17;;;24.40;90.40;;;;;;5093751;28;20048;-63
2021/09/01 01:22:22;;;;;;;6.35;2.67;;;24.30;90.40;;;;;;5093634;28;20428;-63
2021/09/01 01:25:05;;;;;;;4.03;2.60;;;24.30;90.50;;;;;;5094290;28;20082;-63
2021/09/01 01:27:35;;;;;;;6.63;3.10;;;24.30;90.50;;;;;;5093826;28;20367;-63
2021/09/01 01:30:08;;;;;;;4.05;2.58;;;24.30;90.40;;;;;;5093804;28;20086;-63
2021/09/01 01:32:37;;;;;;;4.97;3.47;;;24.30;90.40;;;;;;5093904;28;20432;-63
2021/09/01 01:35:06;;;;;;;4.72;2.72;;;24.30;90.40;;;;;;5075625;28;20043;-63
2021/09/01 01:37:35;;;;;;;4.90;2.53;;;24.30;90.40;;;;;;5075674;28;20048;-63
2021/09/01 01:40:04;;;;;;;4.80;2.85;;;24.30;90.50;;;;;;5093657;28;20040;-63
2021/09/01 01:42:40;;;;;;;4.03;2.72;;;24.30;90.50;;;;;;5093445;28;20040;-63
2021/09/01 01:45:10;;;;;;;5.57;3.25;;;24.30;90.60;;;;;;5093578;28;20047;-62
2021/09/01 01:47:37;;;;;;;5.85;2.30;;;24.30;90.70;;;;;;5076044;28;20097;-63
2021/09/01 01:50:06;;;;;;;5.75;2.75;;;24.30;90.80;;;;;;5075410;28;20089;-63
2021/09/01 01:52:35;;;;;;;9.85;3.00;;;24.30;90.90;;;;;;5093530;28;20048;-63
2021/09/01 01:55:04;;;;;;;6.25;2.65;;;24.30;91.10;;;;;;5093389;28;20048;-63
2021/09/01 01:57:31;;;;;;;4.18;2.38;;;24.30;91.30;;;;;;5093376;28;20428;-63
2021/09/01 01:59:59;;;;;;;7.60;3.05;;;24.30;91.60;;;;;;5075489;28;20071;-63
2021/09/01 02:02:30;;;;;;;6.38;3.60;;;24.30;91.70;;;;;;5093469;28;20180;-63
2021/09/01 02:04:59;;;;;;;3.38;2.03;;;24.30;91.80;;;;;;5093483;28;20051;-63
2021/09/01 02:07:28;;;;;;;4.47;2.20;;;24.30;91.90;;;;;;5093285;28;20048;-63
2021/09/01 02:09:56;;;;;;;4.80;2.50;;;24.20;92.00;;;;;;5075434;28;20040;-63
2021/09/01 02:12:24;;;;;;;5.20;2.35;;;24.20;92.20;;;;;;5093264;28;20109;-63
2021/09/01 02:14:52;;;;;;;3.45;2.20;;;24.20;92.30;;;;;;5075305;28;20104;-63
2021/09/01 02:17:19;;;;;;;4.00;2.58;;;24.20;92.30;;;;;;5092987;28;20462;-63
2021/09/01 02:19:47;;;;;;;4.43;2.20;;;24.20;92.40;;;;;;5075481;28;20036;-63
2021/09/01 02:22:16;;;;;;;4.05;2.55;;;24.20;92.40;;;;;;5093174;28;20040;-63
2021/09/01 02:24:44;;;;;;;4.38;2.38;;;24.20;92.50;;;;;;5075274;28;20048;-63
2021/09/01 02:27:11;;;;;;;7.10;3.08;;;24.20;92.60;;;;;;5075234;28;20048;-63
2021/09/01 02:29:39;;;;;;;3.95;2.42;;;24.20;92.70;;;;;;5075087;28;20521;-63
2021/09/01 02:32:08;;;;;;;4.32;2.72;;;24.20;92.80;;;;;;5092784;28;20147;-62
2021/09/01 02:34:37;;;;;;;4.35;2.28;;;24.20;92.90;;;;;;5093328;28;20040;-62
2021/09/01 02:37:05;;;;;;;4.75;2.50;;;24.20;93.00;;;;;;5092992;28;20044;-63
2021/09/01 02:39:33;;;;;;;3.22;2.47;;;24.10;93.00;;;;;;5094689;28;20532;-62
2021/09/01 02:42:01;;;;;;;3.97;2.28;;;24.10;93.10;;;;;;5096607;28;20085;-63
2021/09/01 02:44:29;;;;;;;5.10;2.67;;;24.10;93.10;;;;;;5078874;28;20074;-62
2021/09/01 02:46:57;;;;;;;4.78;2.67;;;24.10;93.10;;;;;;5096713;28;20559;-62
2021/09/01 02:49:24;;;;;;;3.92;2.78;;;24.00;93.10;;;;;;5096412;28;20044;-62
2021/09/01 02:51:52;;;;;;;4.20;2.65;;;24.10;93.20;;;;;;5078383;28;20047;-62
2021/09/01 02:54:20;;;;;;;4.18;2.33;;;24.00;93.20;;;;;;5078612;28;20051;-62
2021/09/01 02:56:47;;;;;;;5.78;2.45;;;24.00;93.30;;;;;;5096358;28;20390;-62
2021/09/01 02:59:15;;;;;;;3.78;2.15;;;24.00;93.30;;;;;;5096416;28;20134;-62
2021/09/01 03:01:42;;;;;;;4.18;2.15;;;24.00;93.40;;;;;;5096196;28;20490;-63
2021/09/01 03:04:10;;;;;;;5.38;2.50;;;24.00;93.40;;;;;;5096337;28;20046;-62
2021/09/01 03:06:38;;;;;;;4.25;2.65;;;24.00;93.40;;;;;;5096228;28;20111;-62
2021/09/01 03:09:05;;;;;;;3.75;1.85;;;24.00;93.50;;;;;;5078179;28;20040;-62
2021/09/01 03:11:33;;;;;;;2.80;1.77;;;24.00;93.50;;;;;;5096159;28;20051;-62
2021/09/01 03:14:00;;;;;;;3.85;2.00;;;24.00;93.50;;;;;;5096387;28;20040;-62
2021/09/01 03:16:28;;;;;;;4.15;1.88;;;24.00;93.50;;;;;;5096214;28;20044;-62
2021/09/01 03:18:56;;;;;;;2.83;2.00;;;24.00;93.50;;;;;;5096239;28;20151;-62
2021/09/01 03:21:23;;;;;;;4.68;2.72;;;24.00;93.40;;;;;;5095680;28;20075;-62
2021/09/01 03:23:51;;;;;;;4.05;2.13;;;24.00;93.30;;;;;;5095910;28;20393;-62
2021/09/01 03:26:18;;;;;;;3.28;1.88;;;24.00;93.30;;;;;;5095704;28;20044;-62
2021/09/01 03:28:46;;;;;;;4.35;2.60;;;24.00;93.30;;;;;;5077905;28;20086;-62
2021/09/01 03:31:13;;;;;;;2.75;1.80;;;24.00;93.30;;;;;;5095770;28;20040;-62
2021/09/01 03:33:41;;;;;;;2.70;1.90;;;24.00;93.20;;;;;;5095786;28;20532;-62
2021/09/01 03:36:09;;;;;;;4.68;2.00;;;23.90;93.20;;;;;;5095813;28;20052;-62
2021/09/01 03:38:36;;;;;;;3.35;1.95;;;23.90;93.20;;;;;;5095436;28;20044;-62
2021/09/01 03:41:04;;;;;;;3.45;2.20;;;23.90;93.20;;;;;;5096204;28;20487;-62
2021/09/01 03:43:31;;;;;;;4.60;2.08;;;23.90;93.20;;;;;;5095830;28;20047;-62
2021/09/01 03:46:00;;;;;;;3.72;2.10;;;23.90;93.20;;;;;;5095563;28;20440;-62
2021/09/01 03:48:28;;;;;;;2.92;2.15;;;23.80;93.20;;;;;;5077414;28;20136;-62
2021/09/01 03:50:55;;;;;;;3.40;2.28;;;23.80;93.20;;;;;;5095239;28;20044;-62
2021/09/01 03:53:23;;;;;;;3.33;1.92;;;23.80;93.30;;;;;;5095263;28;20051;-62
2021/09/01 03:55:51;;;;;;;3.95;2.17;;;23.90;93.30;;;;;;5095496;28;20040;-62
2021/09/01 03:58:19;;;;;;;4.43;2.13;;;23.80;93.30;;;;;;5095353;28;20043;-62
2021/09/01 04:00:46;;;;;;;3.40;1.80;;;23.80;93.40;;;;;;5077343;28;20040;-64
2021/09/01 04:03:14;;;;;;;4.93;1.92;;;23.80;93.40;;;;;;5077022;28;20044;-63
2021/09/01 04:05:41;;;;;;;4.60;1.90;;;23.70;93.40;;;;;;5095182;28;20086;-63
2021/09/01 04:08:09;;;;;;;4.20;2.78;;;23.80;93.40;;;;;;5094781;28;20071;-63
2021/09/01 04:10:36;;;;;;;3.40;2.10;;;23.80;93.50;;;;;;5095156;28;20040;-63
2021/09/01 04:13:04;;;;;;;4.10;2.22;;;23.70;93.40;;;;;;5060859;28;20386;-63
2021/09/01 04:15:32;;;;;;;4.28;2.33;;;23.70;93.50;;;;;;5094972;28;20418;-63
2021/09/01 04:17:59;;;;;;;3.22;2.17;;;23.70;93.50;;;;;;5094958;28;20044;-63
2021/09/01 04:20:27;;;;;;;4.78;2.10;;;23.80;93.50;;;;;;5094830;28;20044;-63
2021/09/01 04:22:54;;;;;;;3.92;2.15;;;23.80;93.50;;;;;;5094569;28;20559;-62
2021/09/01 04:25:22;;;;;;;3.08;2.20;;;23.70;93.40;;;;;;5094972;28;20048;-63
2021/09/01 04:27:49;;;;;;;4.15;2.00;;;23.70;93.30;;;;;;5094730;28;20048;-63
2021/09/01 04:30:17;;;;;;;3.03;1.92;;;23.70;93.30;;;;;;5094629;28;20055;-63
2021/09/01 04:32:45;;;;;;;2.88;1.73;;;23.70;93.20;;;;;;5094398;28;20383;-63
2021/09/01 04:35:12;;;;;;;4.10;1.98;;;23.80;93.20;;;;;;5076857;28;20036;-62
2021/09/01 04:37:40;;;;;;;9.35;2.72;;;23.80;93.20;;;;;;5094401;28;20093;-63
2021/09/01 04:40:08;;;;;;;3.17;2.13;;;23.80;93.10;;;;;;5094602;28;20545;-63
2021/09/01 04:42:36;;;;;;;4.38;2.55;;;23.80;93.00;;;;;;5076327;28;20123;-63
2021/09/01 04:45:04;;;;;;;5.43;2.38;;;23.90;92.90;;;;;;5076133;28;20048;-63
2021/09/01 04:47:32;;;;;;;3.17;2.08;;;24.00;92.90;;;;;;5094299;28;20621;-62
2021/09/01 04:49:59;;;;;;;5.43;3.60;;;24.10;92.80;;;;;;5075950;28;20135;-62
2021/09/01 04:52:27;;;;;;;4.88;3.35;;;24.20;92.70;;;;;;5094345;28;20387;-63
2021/09/01 04:54:54;;;;;;;6.47;2.67;;;24.20;92.50;;;;;;5076398;28;20502;-63
2021/09/01 04:57:22;;;;;;;5.85;2.50;;;24.40;92.40;;;;;;5094262;28;20047;-63
2021/09/01 04:59:49;;;;;;;4.88;2.30;;;24.40;92.20;;;;;;5094073;28;20202;-63
2021/09/01 05:02:17;;;;;;;3.67;2.58;;;24.60;92.20;;;;;;5093300;28;20052;-62
2021/09/01 05:04:46;;;;;;;6.97;3.17;;;24.60;91.90;;;;;;5093921;28;20051;-63
2021/09/01 05:07:14;;;;;;;6.28;2.88;;;24.80;91.90;;;;;;5094045;28;20047;-63
2021/09/01 05:09:41;;;;;;;5.60;3.13;;;24.90;91.70;;;;;;5094012;28;20043;-63
2021/09/01 05:12:09;;;;;;;5.22;3.00;;;25.10;91.60;;;;;;5093920;28;20040;-62
2021/09/01 05:14:36;;;;;;;4.90;2.90;;;25.20;91.50;;;;;;5093944;28;20044;-63
2021/09/01 05:17:04;;;;;;;7.05;3.72;;;25.30;91.30;;;;;;5093736;28;20048;-63
2021/09/01 05:19:31;;;;;;;6.07;2.67;;;25.50;91.20;;;;;;5093742;28;20093;-62
2021/09/01 05:22:19;;;;;;;5.30;3.15;;;25.60;91.10;;;;;;5093832;28;20036;-63
2021/09/01 05:25:11;;;;;;;5.90;4.03;;;25.70;90.90;;;;;;5093936;28;20401;-63
2021/09/01 05:27:41;;;;;;;7.07;3.40;;;25.90;90.90;;;;;;5093885;28;20490;-63
2021/09/01 05:30:13;;;;;;;7.22;3.22;;;26.00;90.80;;;;;;5093547;28;20076;-62
2021/09/01 05:32:43;;;;;;;6.47;3.50;;;26.10;90.80;;;;;;5093504;28;20048;-63
2021/09/01 05:35:15;;;;;;;8.18;3.33;;;26.20;90.60;;;;;;5093732;28;20047;-63
2021/09/01 05:37:43;;;;;;;6.18;2.97;;;26.40;90.50;;;;;;5093718;28;20048;-63
2021/09/01 05:40:12;;;;;;;5.10;2.85;;;26.50;90.40;;;;;;5075771;28;20052;-63
2021/09/01 05:42:40;;;;;;;5.40;2.90;;;26.60;90.30;;;;;;5075417;28;20070;-63
2021/09/01 05:45:09;;;;;;;3.65;2.30;;;26.80;90.20;;;;;;5093632;28;20486;-62
2021/09/01 05:47:37;;;;;;;6.30;3.13;;;26.90;90.10;;;;;;5059305;28;20498;-63
2021/09/01 05:50:06;;;;;;;4.10;2.45;;;27.10;90.10;;;;;;5075208;28;20044;-62
2021/09/01 05:52:34;;;;;;;5.70;2.70;;;27.20;90.00;;;;;;5093828;28;20052;-63
2021/09/01 05:55:09;;;;;;;8.10;3.00;;;27.30;89.80;;;;;;5093441;28;20044;-62
2021/09/01 05:57:41;;;;;;;13.30;2.63;;;27.50;89.50;;;;;;5093681;28;20043;-63
2021/09/01 06:00:13;;;;;;;7.82;2.80;;;27.60;89.20;;;;;;5093676;28;20054;-63
2021/09/01 06:02:53;;;;;;;8.88;2.83;;;27.70;88.70;;;;;;5093462;28;20051;-63
2021/09/01 06:05:23;;;;;;;5.10;2.60;;;27.90;88.70;;;;;;5093462;28;20139;-63
2021/09/01 06:07:56;;;;;;;5.80;2.47;;;27.90;88.50;;;;;;5093324;28;20529;-63
2021/09/01 06:10:33;;;;;;;8.25;3.15;;;28.10;88.30;;;;;;5075276;28;20055;-63
2021/09/01 06:13:09;;;;;;;3.38;2.00;;;28.20;87.90;;;;;;5093319;28;20040;-63
2021/09/01 06:15:40;;;;;;;3.92;2.15;;;28.30;87.70;;;;;;5097043;28;20105;-63
2021/09/01 06:18:08;;;;;;;4.85;2.38;;;28.40;87.50;;;;;;5079158;28;20051;-63
2021/09/01 06:20:38;;;;;;;5.65;3.03;;;28.60;87.30;;;;;;5079039;28;20436;-63
2021/09/01 06:23:06;;;;;;;5.03;3.10;;;28.70;86.80;;;;;;5097243;28;20044;-63
2021/09/01 06:25:33;;;;;;;4.30;1.67;;;28.80;86.30;;;;;;5097218;28;20098;-62
2021/09/01 06:28:06;;;;;;;3.08;1.83;;;28.90;85.60;;;;;;5078907;28;20044;-63
2021/09/01 06:30:35;;;;;;;3.35;1.42;;;29.00;85.00;;;;;;5097051;28;20048;-63
2021/09/01 06:33:03;;;;;;;1.35;1.08;;;29.10;84.50;;;;;;5062190;28;20066;-63
2021/09/01 06:35:30;;;;;;;6.15;1.17;;;29.20;84.30;;;;;;5078588;28;20036;-63
2021/09/01 06:37:58;;;;;;;4.15;1.15;;;29.30;84.00;;;;;;5078641;28;20048;-63
2021/09/01 06:40:26;;;;;;;4.35;1.08;;;29.20;82.70;;;;;;5096812;28;20135;-63
2021/09/01 06:42:54;;;;;;;1.25;0.80;;;29.30;82.30;;;;;;5096894;28;20516;-63
2021/09/01 06:45:22;;;;;;;1.33;0.90;;;29.30;82.10;;;;;;5078664;28;20044;-63
2021/09/01 06:47:51;;;;;;;1.33;1.00;;;29.30;82.10;;;;;;5096634;28;20128;-63
2021/09/01 06:50:22;;;;;;;2.50;0.88;;;29.40;82.50;;;;;;5078922;28;20040;-63
2021/09/01 06:52:50;;;;;;;1.77;1.00;;;29.20;82.60;;;;;;5096455;28;20048;-63
2021/09/01 06:55:18;;;;;;;1.80;0.80;;;29.20;83.00;;;;;;5096285;28;20050;-63
2021/09/01 06:57:46;;;;;;;1.50;0.90;;;29.20;82.20;;;;;;5096696;28;20536;-63
2021/09/01 07:00:16;;;;;;;1.48;0.98;;;29.30;81.40;;;;;;5078362;28;20036;-63
2021/09/01 07:02:43;;;;;;;1.35;0.98;;;29.40;81.00;;;;;;5096697;28;20047;-63
2021/09/01 07:05:14;;;;;;;2.38;1.10;;;29.60;80.60;;;;;;5096341;28;20051;-63
2021/09/01 07:07:42;;;;;;;1.70;0.73;;;29.70;80.40;;;;;;5096188;28;20051;-63
2021/09/01 07:10:12;;;;;;;3.90;1.20;;;29.80;80.10;;;;;;5096349;28;20051;-63
2021/09/01 07:12:40;;;;;;;1.88;1.08;;;29.70;80.90;;;;;;5096190;28;20050;-63
2021/09/01 07:15:09;;;;;;;1.90;1.10;;;29.70;80.80;;;;;;5096038;28;20044;-63
2021/09/01 07:17:39;;;;;;;1.92;1.00;;;29.90;81.00;;;;;;5096174;28;20055;-63
2021/09/01 07:20:07;;;;;;;3.42;1.30;;;29.90;80.20;;;;;;5095953;28;20044;-63
2021/09/01 07:22:36;;;;;;;2.38;1.15;;;30.10;79.90;;;;;;5095998;28;20054;-63
2021/09/01 07:25:05;;;;;;;2.92;1.10;;;30.30;78.90;;;;;;5095598;28;20051;-63
2021/09/01 07:27:33;;;;;;;2.00;0.90;;;30.40;77.40;;;;;;5095881;28;20050;-63
2021/09/01 07:30:00;;;;;;;1.20;1.00;;;30.40;77.30;;;;;;5095806;28;20044;-63
2021/09/01 07:32:28;;;;;;;1.98;1.20;;;30.40;77.50;;;;;;5095882;28;20120;-63
2021/09/01 07:34:56;;;;;;;1.83;0.85;;;30.40;77.70;;;;;;5095623;28;20047;-63
2021/09/01 07:37:23;;;;;;;9.30;1.10;;;30.30;78.00;;;;;;5095480;28;20048;-63
2021/09/01 07:39:51;;;;;;;1.48;0.98;;;30.20;77.00;;;;;;5095784;28;20043;-63
2021/09/01 07:42:18;;;;;;;3.15;0.93;;;30.20;77.40;;;;;;5095395;28;20385;-63
2021/09/01 07:44:46;;;;;;;2.08;1.15;;;30.20;78.20;;;;;;5095617;28;20048;-63
2021/09/01 07:47:14;;;;;;;2.45;1.33;;;30.20;77.40;;;;;;5095475;28;20040;-63
2021/09/01 07:49:41;;;;;;;2.00;0.90;;;30.30;77.50;;;;;;5095408;28;20048;-63
2021/09/01 07:52:09;;;;;;;2.30;1.55;;;30.40;77.50;;;;;;5077565;28;20067;-63
2021/09/01 07:54:37;;;;;;;3.17;1.38;;;30.50;77.20;;;;;;5095362;28;20051;-63
2021/09/01 07:57:05;;;;;;;2.22;1.20;;;30.70;77.50;;;;;;5077624;28;20036;-63
2021/09/01 07:59:32;;;;;;;4.18;1.15;;;30.90;77.10;;;;;;5095280;28;20068;-63
2021/09/01 08:02:00;;;;;;;1.73;1.00;;;30.90;76.20;;;;;;5077048;28;20502;-63
2021/09/01 08:04:27;;;;;;;2.30;0.93;;;30.90;75.30;;;;;;5095136;28;20044;-63
2021/09/01 08:06:55;;;;;;;3.03;1.23;;;31.00;75.30;;;;;;5095498;28;20154;-63
2021/09/01 08:09:22;;;;;;;2.88;0.98;;;31.00;75.30;;;;;;5095020;28;20052;-63
2021/09/01 08:11:50;;;;;;;3.45;1.13;;;31.00;74.60;;;;;;5077209;28;20040;-63
2021/09/01 08:14:18;;;;;;;1.95;1.00;;;31.10;75.00;;;;;;5095126;28;20505;-63
2021/09/01 08:16:45;;;;;;;1.05;0.70;;;31.00;74.10;;;;;;5094899;28;20113;-63
2021/09/01 08:19:13;;;;;;;2.40;1.13;;;30.70;74.90;;;;;;5076939;28;20071;-63
2021/09/01 08:21:41;;;;;;;2.25;0.80;;;30.60;75.50;;;;;;5076683;28;20497;-63
2021/09/01 08:24:09;;;;;;;1.88;0.80;;;30.70;75.80;;;;;;5094808;28;20040;-63
2021/09/01 08:26:36;;;;;;;1.75;1.00;;;30.70;74.80;;;;;;5094865;28;20051;-63
2021/09/01 08:29:04;;;;;;;1.88;0.82;;;30.50;75.10;;;;;;5094817;28;20036;-63
2021/09/01 08:31:32;;;;;;;2.28;1.10;;;30.50;74.90;;;;;;5094498;28;20478;-63
2021/09/01 08:33:59;;;;;;;3.10;1.20;;;30.70;75.80;;;;;;5094842;28;20051;-63
2021/09/01 08:36:27;;;;;;;3.17;1.33;;;30.80;75.70;;;;;;5093861;28;20113;-63
2021/09/01 08:38:54;;;;;;;2.92;0.90;;;30.80;75.80;;;;;;5094768;28;20044;-60
2021/09/01 08:41:22;;;;;;;2.63;1.00;;;31.00;75.90;;;;;;5094331;28;20046;-59
2021/09/01 08:43:51;;;;;;;3.65;1.08;;;30.80;75.90;;;;;;5060163;28;20052;-66
2021/09/01 08:46:19;;;;;;;3.03;1.55;;;30.80;76.80;;;;;;5076217;28;20113;-65
2021/09/01 08:48:48;;;;;;;5.35;1.50;;;30.50;77.00;;;;;;5093116;28;20048;-65
2021/09/01 08:51:16;;;;;;;2.53;1.30;;;30.30;76.70;;;;;;5092842;28;20083;-64
2021/09/01 08:53:43;;;;;;;2.13;0.80;;;30.10;76.80;;;;;;5074874;28;20488;-64
2021/09/01 08:56:11;;;;;;;1.20;0.95;;;30.00;76.30;;;;;;5092991;28;20059;-64
2021/09/01 08:58:39;;;;;;;2.75;1.00;;;30.20;76.80;;;;;;5074847;28;20049;-64
2021/09/01 09:01:07;;;;;;;3.58;1.25;;;30.10;77.00;;;;;;5058219;28;20052;-65
2021/09/01 09:03:35;;;;;;;2.08;1.10;;;30.00;77.60;;;;;;5093042;28;20051;-62
2021/09/01 09:06:04;;;;;;;1.50;1.10;;;29.90;77.60;;;;;;5041553;28;20090;-67
2021/09/01 09:08:33;;;;;;;1.75;1.08;;;29.90;76.60;;;;;;5074768;28;20044;-63
2021/09/01 09:11:01;;;;;;;1.75;1.23;;;30.10;76.40;;;;;;5074835;28;20075;-66
2021/09/01 09:13:34;;;;;;;1.48;0.88;;;30.30;76.60;;;;;;5058061;28;20051;-66
2021/09/01 09:16:09;;;;;;;4.88;1.88;;;30.30;76.90;;;;;;5074606;28;20170;-65
2021/09/01 09:18:38;;;;;;;2.72;0.90;;;30.10;77.00;;;;;;5093204;28;20562;-67
2021/09/01 09:21:19;;;;;;;2.58;1.10;;;30.20;76.80;;;;;;5074873;28;20117;-67
2021/09/01 09:23:49;;;;;;;2.45;1.20;;;30.50;76.20;;;;;;5092435;28;20044;-67
2021/09/01 09:26:29;;;;;;;3.03;1.17;;;30.20;74.90;;;;;;5092806;28;20077;-67
2021/09/01 09:29:17;;;;;;;5.65;1.70;;;30.40;75.80;;;;;;5074826;28;20040;-67
2021/09/01 09:31:58;;;;;;;5.55;1.83;;;30.60;76.00;;;;;;5041086;28;20059;-68
2021/09/01 09:34:35;;;;;;;4.13;1.45;;;30.70;76.00;;;;;;5074984;28;20083;-68
2021/09/01 09:37:10;;;;;;;2.35;1.30;;;30.50;75.40;;;;;;5092710;28;20089;-69
2021/09/01 09:39:47;;;;;;;2.55;1.23;;;30.30;75.80;;;;;;5074809;28;20044;-69
2021/09/01 09:42:33;;;;;;;2.20;1.02;;;30.30;76.30;;;;;;5092868;28;20101;-68
2021/09/01 09:45:18;;;;;;;2.60;1.00;;;30.30;75.00;;;;;;5092458;28;20046;-69
2021/09/01 09:47:51;;;;;;;3.05;1.13;;;30.10;75.00;;;;;;5093155;28;20054;-68
2021/09/01 09:50:19;;;;;;;2.00;1.05;;;30.10;75.60;;;;;;5061813;28;20076;-69
2021/09/01 09:52:49;;;;;;;3.63;1.20;;;30.30;75.70;;;;;;5061819;28;20192;-69
2021/09/01 09:55:21;;;;;;;2.03;1.02;;;30.40;76.00;;;;;;5078491;28;20043;-69
2021/09/01 09:57:49;;;;;;;3.20;1.13;;;30.30;75.30;;;;;;5078536;28;20044;-69
2021/09/01 10:00:19;;;;;;;2.67;1.33;;;30.20;74.40;;;;;;5078817;28;20043;-69
2021/09/01 10:02:47;;;;;;;1.58;1.02;;;30.10;74.20;;;;;;5062021;28;20081;-69
2021/09/01 10:05:22;;;;;;;1.80;1.10;;;29.90;74.60;;;;;;5078681;28;20113;-68
2021/09/01 10:07:51;;;;;;;4.35;1.17;;;29.90;74.40;;;;;;5078322;28;20131;-68
2021/09/01 10:10:18;;;;;;;5.40;3.58;;;29.90;74.60;;;;;;5096317;28;20044;-68
2021/09/01 10:12:47;;;;;;;3.80;1.33;;;29.90;75.40;;;;;;5096339;28;20076;-68
2021/09/01 10:15:26;;;;;;;2.00;1.10;;;29.80;75.80;;;;;;5078400;28;20048;-69
2021/09/01 10:18:00;;;;;;;2.47;1.08;;;30.00;75.70;;;;;;5078479;28;20082;-69
2021/09/01 10:20:28;;;;;;;1.92;1.10;;;30.00;75.30;;;;;;5077941;28;20528;-68
2021/09/01 10:23:04;;;;;;;1.80;1.02;;;29.90;73.70;;;;;;5095948;28;20070;-69
2021/09/01 10:25:36;;;;;;;3.10;1.52;;;30.00;74.30;;;;;;5077700;28;20054;-68
2021/09/01 10:28:30;;;;;;;3.10;0.93;;;30.10;74.60;;;;;;5077744;28;20139;-68
2021/09/01 10:31:11;;;;;;;2.97;1.00;;;30.00;74.30;;;;;;5077687;28;20067;-69
2021/09/01 10:33:46;;;;;;;3.72;1.10;;;30.00;74.80;;;;;;5078178;28;20419;-69
2021/09/01 10:36:23;;;;;;;2.50;1.08;;;30.20;74.50;;;;;;5077699;28;20044;-69
2021/09/01 10:39:08;;;;;;;2.28;1.30;;;30.30;74.90;;;;;;5077910;28;20123;-69
2021/09/01 10:41:38;;;;;;;2.40;1.23;;;30.40;74.00;;;;;;5078039;28;20405;-69
2021/09/01 10:44:11;;;;;;;4.03;1.65;;;30.40;73.40;;;;;;5095908;28;20154;-68
2021/09/01 10:46:54;;;;;;;3.17;1.67;;;30.40;74.30;;;;;;5077722;28;20071;-68
2021/09/01 10:49:27;;;;;;;3.88;1.73;;;30.30;75.10;;;;;;5078090;28;20074;-68
2021/09/01 10:52:03;;;;;;;3.45;1.38;;;30.20;74.60;;;;;;5096610;28;20044;-68
2021/09/01 10:54:33;;;;;;;7.00;1.50;;;30.30;74.70;;;;;;5078857;28;20036;-68
2021/09/01 10:57:04;;;;;;;3.38;1.73;;;30.40;75.20;;;;;;5096628;28;20127;-66
2021/09/01 11:23:10;;;;;;;;;;;29.90;70.00;;;;;;5152895;27;20385;-61
2021/09/01 11:25:38;;;;;;;3.58;1.20;;;30.20;73.20;;;;;;5151684;27;19964;-59
2021/09/01 11:28:12;;;;;;;3.38;1.33;;;30.30;73.10;;;;;;5133146;27;20035;-61
2021/09/01 11:30:40;;;;;;;1.85;1.17;;;30.50;72.40;;;;;;5116115;27;20096;-61
2021/09/01 11:33:15;;;;;;;1.90;0.90;;;30.50;71.00;;;;;;5133359;27;20043;-60
2021/09/01 11:35:43;;;;;;;3.55;1.10;;;30.40;70.20;;;;;;5133192;27;20393;-61
2021/09/01 11:38:11;;;;;;;2.08;1.30;;;30.20;69.90;;;;;;5151628;27;20142;-60
2021/09/01 11:40:42;;;;;;;4.72;1.50;;;29.80;71.10;;;;;;5133010;27;20054;-61
2021/09/01 11:43:15;;;;;;;2.20;1.40;;;29.90;72.50;;;;;;5132951;27;20460;-61
2021/09/01 11:45:51;;;;;;;2.13;1.33;;;30.00;72.10;;;;;;5151448;27;20050;-61
2021/09/01 11:48:20;;;;;;;3.92;1.33;;;30.10;72.20;;;;;;5151501;27;20051;-62
2021/09/01 11:50:49;;;;;;;2.22;1.42;;;30.20;72.10;;;;;;5132456;27;20514;-61
2021/09/01 11:53:43;;;;;;;3.17;1.80;;;30.30;72.70;;;;;;5151262;27;20082;-61
2021/09/01 11:56:11;;;;;;;1.90;1.10;;;30.30;70.40;;;;;;5151656;27;20046;-60
2021/09/01 11:58:39;;;;;;;3.22;1.35;;;30.20;69.60;;;;;;5132944;27;20038;-60
2021/09/01 12:01:13;;;;;;;2.65;1.52;;;30.30;69.90;;;;;;5132769;27;20391;-60
2021/09/01 12:03:42;;;;;;;1.35;1.05;;;30.10;69.60;;;;;;5098610;27;20138;-60
2021/09/01 12:06:32;;;;;;;2.65;1.40;;;29.90;70.40;;;;;;5132554;27;20395;-60
2021/09/01 12:09:00;;;;;;;1.98;1.23;;;29.90;70.90;;;;;;5132495;27;20039;-61
2021/09/01 12:11:31;;;;;;;2.95;1.30;;;29.80;70.40;;;;;;5124016;28;20047;-62
2021/09/01 12:14:05;;;;;;;2.42;1.20;;;29.90;70.00;;;;;;5129950;28;20052;-61
2021/09/01 12:16:34;;;;;;;2.20;1.33;;;29.90;69.10;;;;;;5111726;28;20043;-61
2021/09/01 12:19:09;;;;;;;2.33;1.38;;;30.00;69.10;;;;;;5094676;28;20039;-61
2021/09/01 12:21:59;;;;;;;2.42;1.30;;;30.00;68.60;;;;;;5129848;28;20129;-61
2021/09/01 12:24:32;;;;;;;2.42;1.25;;;30.00;69.00;;;;;;5080766;28;20044;-62
2021/09/01 12:27:06;;;;;;;1.92;1.23;;;30.00;69.20;;;;;;5115126;28;20119;-59
2021/09/01 12:29:49;;;;;;;2.38;1.27;;;30.00;69.50;;;;;;5116283;28;20120;-61
2021/09/01 12:32:21;;;;;;;3.30;1.10;;;30.00;70.60;;;;;;5116146;28;20422;-61
2021/09/01 12:35:00;;;;;;;2.30;1.45;;;30.00;70.10;;;;;;5116126;28;20062;-61
2021/09/01 12:37:34;;;;;;;2.72;1.20;;;29.90;70.20;;;;;;5098724;28;20040;-61
2021/09/01 12:40:04;;;;;;;1.98;1.05;;;29.90;72.00;;;;;;5081152;28;20058;-60
2021/09/01 12:42:36;;;;;;;2.88;1.33;;;29.80;72.50;;;;;;5098454;28;20047;-60
2021/09/01 12:45:06;;;;;;;2.88;1.15;;;29.80;73.70;;;;;;5116619;28;20047;-60
2021/09/01 12:47:35;;;;;;;3.78;1.30;;;29.70;74.10;;;;;;5116413;28;20065;-61
2021/09/01 12:50:04;;;;;;;2.03;1.13;;;29.60;74.30;;;;;;5098808;28;20093;-61
2021/09/01 12:52:36;;;;;;;2.20;1.23;;;29.60;75.00;;;;;;5116551;28;20047;-62
2021/09/01 12:55:05;;;;;;;2.70;1.27;;;29.50;75.00;;;;;;5098235;28;20052;-61
2021/09/01 12:57:33;;;;;;;1.42;0.93;;;29.50;75.20;;;;;;5116372;28;20035;-60
2021/09/01 13:00:02;;;;;;;3.28;1.20;;;29.40;75.30;;;;;;5097989;28;20494;-62
2021/09/01 13:02:31;;;;;;;2.50;1.20;;;29.40;75.40;;;;;;5081160;28;20466;-62
2021/09/01 13:04:58;;;;;;;2.25;1.30;;;29.40;75.20;;;;;;5081385;28;20050;-62
2021/09/01 13:07:26;;;;;;;4.93;1.58;;;29.40;75.10;;;;;;5116117;28;20056;-62
2021/09/01 13:09:54;;;;;;;3.13;1.25;;;29.30;74.10;;;;;;5098184;28;20043;-60
2021/09/01 13:12:22;;;;;;;5.93;1.25;;;29.30;73.40;;;;;;5097907;28;20050;-60
2021/09/01 13:14:50;;;;;;;8.48;2.45;;;29.30;73.80;;;;;;5098147;28;20036;-59
2021/09/01 13:17:17;;;;;;;9.45;1.63;;;29.20;74.20;;;;;;5097760;28;20043;-58
2021/09/01 13:19:47;;;;;;;6.22;2.83;;;29.20;74.90;;;;;;5116086;28;20039;-58
2021/09/01 13:22:16;;;;;;;8.18;2.17;;;29.20;74.70;;;;;;5097752;28;20062;-58
2021/09/01 13:24:45;;;;;;;5.45;2.20;;;29.20;73.60;;;;;;5081109;28;20039;-43